sensor_id;sensor_type;location;lat;lon;timestamp;pressure;altitude;pressure_sealevel;temperature;humidity
22647;BME280;11490;42.726;23.268;2023-03-26T00:00:07;94725.91;;;10.78;86.92
22647;BME280;11490;42.726;23.268;2023-03-26T00:02:33;94740.53;;;10.97;87.06
22647;BME280;11490;42.726;23.268;2023-03-26T00:04:59;94726.63;;;10.95;87.29
22647;BME280;11490;42.726;23.268;2023-03-26T00:07:24;94740.97;;;10.89;86.99
22647;BME280;11490;42.726;23.268;2023-03-26T00:09:52;94741.44;;;10.81;87.80
22647;BME280;11490;42.726;23.268;2023-03-26T00:12:17;94750.59;;;10.90;88.20
22647;BME280;11490;42.726;23.268;2023-03-26T00:14:42;94729.25;;;10.90;86.97
22647;BME280;11490;42.726;23.268;2023-03-26T00:17:09;94732.00;;;11.00;87.03
22647;BME280;11490;42.726;23.268;2023-03-26T00:19:34;94727.34;;;11.12;86.82
22647;BME280;11490;42.726;23.268;2023-03-26T00:22:01;94728.50;;;11.22;85.77
22647;BME280;11490;42.726;23.268;2023-03-26T00:24:27;94727.34;;;11.12;85.66
22647;BME280;11490;42.726;23.268;2023-03-26T00:26:54;94724.09;;;11.10;85.28
22647;BME280;11490;42.726;23.268;2023-03-26T00:29:20;94724.59;;;11.07;85.83
22647;BME280;11490;42.726;23.268;2023-03-26T00:31:47;94732.06;;;11.05;85.85
22647;BME280;11490;42.726;23.268;2023-03-26T00:34:13;94716.41;;;10.87;87.22
22647;BME280;11490;42.726;23.268;2023-03-26T00:36:39;94729.84;;;10.97;86.44
22647;BME280;11490;42.726;23.268;2023-03-26T00:39:06;94733.56;;;10.96;86.30
22647;BME280;11490;42.726;23.268;2023-03-26T00:41:32;94736.84;;;11.03;87.03
22647;BME280;11490;42.726;23.268;2023-03-26T00:44:00;94729.34;;;11.00;85.66
22647;BME280;11490;42.726;23.268;2023-03-26T00:46:28;94723.91;;;10.90;86.92
22647;BME280;11490;42.726;23.268;2023-03-26T00:48:54;94714.31;;;10.89;86.31
22647;BME280;11490;42.726;23.268;2023-03-26T00:51:23;94734.06;;;10.93;86.38
22647;BME280;11490;42.726;23.268;2023-03-26T00:53:49;94734.47;;;10.80;86.16
22647;BME280;11490;42.726;23.268;2023-03-26T00:56:15;94710.50;;;10.85;86.71
22647;BME280;11490;42.726;23.268;2023-03-26T00:58:41;94720.31;;;10.79;86.72
22647;BME280;11490;42.726;23.268;2023-03-26T01:01:13;94719.19;;;10.97;86.93
22647;BME280;11490;42.726;23.268;2023-03-26T01:03:40;94721.91;;;11.02;86.05
22647;BME280;11490;42.726;23.268;2023-03-26T01:06:08;94723.41;;;10.93;86.33
22647;BME280;11490;42.726;23.268;2023-03-26T01:08:49;94723.41;;;10.93;87.05
22647;BME280;11490;42.726;23.268;2023-03-26T01:11:26;94731.03;;;11.06;86.29
22647;BME280;11490;42.726;23.268;2023-03-26T01:14:01;94733.09;;;10.99;85.96
22647;BME280;11490;42.726;23.268;2023-03-26T01:16:49;94740.00;;;11.00;85.93
22647;BME280;11490;42.726;23.268;2023-03-26T01:22:08;94738.16;;;10.74;86.06
22647;BME280;11490;42.726;23.268;2023-03-26T01:24:35;94744.81;;;10.76;85.96
22647;BME280;11490;42.726;23.268;2023-03-26T01:29:54;94764.66;;;10.86;86.14
22647;BME280;11490;42.726;23.268;2023-03-26T01:32:28;94766.34;;;10.70;86.33
22647;BME280;11490;42.726;23.268;2023-03-26T01:41:20;94752.91;;;10.82;86.61
22647;BME280;11490;42.726;23.268;2023-03-26T01:46:16;94756.91;;;10.84;87.43
22647;BME280;11490;42.726;23.268;2023-03-26T01:48:45;94752.38;;;10.85;87.34
22647;BME280;11490;42.726;23.268;2023-03-26T01:51:12;94756.88;;;10.79;87.59
22647;BME280;11490;42.726;23.268;2023-03-26T01:53:43;94743.91;;;10.66;87.75
22647;BME280;11490;42.726;23.268;2023-03-26T02:01:26;94759.13;;;10.65;88.64
22647;BME280;11490;42.726;23.268;2023-03-26T02:09:28;94749.63;;;10.53;90.26
22647;BME280;11490;42.726;23.268;2023-03-26T02:11:55;94749.63;;;10.53;90.10
22647;BME280;11490;42.726;23.268;2023-03-26T02:14:21;94759.22;;;10.54;89.96
22647;BME280;11490;42.726;23.268;2023-03-26T02:16:47;94753.69;;;10.38;90.33
22647;BME280;11490;42.726;23.268;2023-03-26T02:19:13;94764.22;;;10.45;90.74
22647;BME280;11490;42.726;23.268;2023-03-26T02:21:46;94764.03;;;10.52;90.30
22647;BME280;11490;42.726;23.268;2023-03-26T02:24:15;94752.84;;;10.55;90.23
22647;BME280;11490;42.726;23.268;2023-03-26T02:26:40;94753.97;;;10.59;90.08
22647;BME280;11490;42.726;23.268;2023-03-26T02:29:05;94754.97;;;10.53;90.76
22647;BME280;11490;42.726;23.268;2023-03-26T02:31:31;94757.81;;;10.68;90.57
22647;BME280;11490;42.726;23.268;2023-03-26T02:33:56;94746.50;;;10.61;89.94
22647;BME280;11490;42.726;23.268;2023-03-26T02:36:23;94765.81;;;10.68;90.65
22647;BME280;11490;42.726;23.268;2023-03-26T02:38:52;94770.75;;;10.81;89.59
22647;BME280;11490;42.726;23.268;2023-03-26T02:41:17;94764.19;;;10.67;90.87
22647;BME280;11490;42.726;23.268;2023-03-26T02:43:42;94761.56;;;10.94;89.20
22647;BME280;11490;42.726;23.268;2023-03-26T02:46:08;94769.31;;;10.95;87.91
22647;BME280;11490;42.726;23.268;2023-03-26T02:48:34;94771.44;;;10.50;89.80
22647;BME280;11490;42.726;23.268;2023-03-26T02:51:03;94786.03;;;10.64;90.42
22647;BME280;11490;42.726;23.268;2023-03-26T02:53:29;94789.53;;;10.48;90.86
22647;BME280;11490;42.726;23.268;2023-03-26T02:55:55;94792.97;;;10.43;91.24
22647;BME280;11490;42.726;23.268;2023-03-26T02:58:21;94797.16;;;10.39;91.10
22647;BME280;11490;42.726;23.268;2023-03-26T03:00:49;94792.19;;;10.09;92.34
22647;BME280;11490;42.726;23.268;2023-03-26T03:03:22;94792.53;;;9.96;93.13
22647;BME280;11490;42.726;23.268;2023-03-26T03:05:57;94786.88;;;9.92;93.22
22647;BME280;11490;42.726;23.268;2023-03-26T03:08:25;94791.09;;;9.88;92.96
22647;BME280;11490;42.726;23.268;2023-03-26T03:10:58;94800.47;;;9.91;93.78
22647;BME280;11490;42.726;23.268;2023-03-26T03:13:24;94795.78;;;9.98;93.02
22647;BME280;11490;42.726;23.268;2023-03-26T03:15:49;94788.94;;;10.07;92.01
22647;BME280;11490;42.726;23.268;2023-03-26T03:18:14;94805.75;;;10.24;91.28
22647;BME280;11490;42.726;23.268;2023-03-26T03:20:40;94796.81;;;10.14;91.45
22647;BME280;11490;42.726;23.268;2023-03-26T03:23:05;94820.13;;;10.23;90.46
22647;BME280;11490;42.726;23.268;2023-03-26T03:25:31;94808.44;;;9.91;91.27
22647;BME280;11490;42.726;23.268;2023-03-26T03:27:57;94809.50;;;9.73;92.08
22647;BME280;11490;42.726;23.268;2023-03-26T03:30:23;94808.03;;;9.65;92.57
22647;BME280;11490;42.726;23.268;2023-03-26T03:32:48;94803.75;;;9.64;93.46
22647;BME280;11490;42.726;23.268;2023-03-26T03:35:14;94800.63;;;9.68;93.60
22647;BME280;11490;42.726;23.268;2023-03-26T03:37:40;94793.97;;;9.53;93.54
22647;BME280;11490;42.726;23.268;2023-03-26T03:40:06;94792.06;;;9.65;93.03
22647;BME280;11490;42.726;23.268;2023-03-26T03:42:32;94791.09;;;9.72;93.19
22647;BME280;11490;42.726;23.268;2023-03-26T03:44:57;94799.31;;;9.87;92.47
22647;BME280;11490;42.726;23.268;2023-03-26T03:47:22;94798.50;;;9.70;92.64
22647;BME280;11490;42.726;23.268;2023-03-26T03:49:48;94804.34;;;9.67;93.25
22647;BME280;11490;42.726;23.268;2023-03-26T03:52:14;94806.25;;;9.54;93.63
22647;BME280;11490;42.726;23.268;2023-03-26T03:54:40;94808.31;;;9.52;94.21
22647;BME280;11490;42.726;23.268;2023-03-26T03:57:06;94806.41;;;9.64;94.04
22647;BME280;11490;42.726;23.268;2023-03-26T03:59:31;94824.47;;;9.62;94.07
22647;BME280;11490;42.726;23.268;2023-03-26T04:01:56;94815.28;;;9.53;94.31
22647;BME280;11490;42.726;23.268;2023-03-26T04:04:22;94818.97;;;9.52;94.17
22647;BME280;11490;42.726;23.268;2023-03-26T04:06:49;94817.72;;;9.72;94.27
22647;BME280;11490;42.726;23.268;2023-03-26T04:09:15;94824.25;;;9.64;94.27
22647;BME280;11490;42.726;23.268;2023-03-26T04:11:41;94829.19;;;9.89;93.80
22647;BME280;11490;42.726;23.268;2023-03-26T04:14:06;94843.78;;;9.86;94.16
22647;BME280;11490;42.726;23.268;2023-03-26T04:16:31;94840.66;;;9.89;93.46
22647;BME280;11490;42.726;23.268;2023-03-26T04:18:57;94848.88;;;9.88;93.95
22647;BME280;11490;42.726;23.268;2023-03-26T04:21:22;94853.72;;;9.91;92.72
22647;BME280;11490;42.726;23.268;2023-03-26T04:23:48;94856.47;;;9.96;93.57
22647;BME280;11490;42.726;23.268;2023-03-26T04:26:16;94865.03;;;9.98;93.29
22647;BME280;11490;42.726;23.268;2023-03-26T04:28:51;94873.56;;;10.00;93.43
22647;BME280;11490;42.726;23.268;2023-03-26T04:31:22;94877.16;;;10.06;93.92
22647;BME280;11490;42.726;23.268;2023-03-26T04:33:49;94874.88;;;10.14;93.08
22647;BME280;11490;42.726;23.268;2023-03-26T04:36:21;94880.69;;;10.11;92.82
22647;BME280;11490;42.726;23.268;2023-03-26T04:38:51;94890.00;;;10.25;92.21
22647;BME280;11490;42.726;23.268;2023-03-26T04:41:20;94891.34;;;10.11;91.93
22647;BME280;11490;42.726;23.268;2023-03-26T04:43:46;94899.41;;;10.16;91.53
22647;BME280;11490;42.726;23.268;2023-03-26T04:46:15;94895.03;;;10.22;91.66
22647;BME280;11490;42.726;23.268;2023-03-26T04:48:43;94893.72;;;10.24;91.65
22647;BME280;11490;42.726;23.268;2023-03-26T04:51:09;94901.06;;;10.17;91.64
22647;BME280;11490;42.726;23.268;2023-03-26T04:53:42;94902.84;;;10.28;90.83
22647;BME280;11490;42.726;23.268;2023-03-26T04:56:31;94884.88;;;10.07;90.73
22647;BME280;11490;42.726;23.268;2023-03-26T04:59:00;94893.94;;;10.06;89.34
22647;BME280;11490;42.726;23.268;2023-03-26T05:01:26;94880.34;;;10.08;89.82
22647;BME280;11490;42.726;23.268;2023-03-26T05:03:58;94878.44;;;10.03;89.36
22647;BME280;11490;42.726;23.268;2023-03-26T05:06:25;94894.31;;;10.15;88.76
22647;BME280;11490;42.726;23.268;2023-03-26T05:08:53;94907.53;;;10.21;88.85
22647;BME280;11490;42.726;23.268;2023-03-26T05:11:19;94913.09;;;10.36;88.69
22647;BME280;11490;42.726;23.268;2023-03-26T05:13:44;94920.47;;;10.29;88.00
22647;BME280;11490;42.726;23.268;2023-03-26T05:16:14;94918.34;;;10.31;88.78
22647;BME280;11490;42.726;23.268;2023-03-26T05:18:39;94921.22;;;10.13;88.77
22647;BME280;11490;42.726;23.268;2023-03-26T05:21:05;94907.00;;;9.91;90.44
22647;BME280;11490;42.726;23.268;2023-03-26T05:23:30;94919.44;;;10.02;90.06
22647;BME280;11490;42.726;23.268;2023-03-26T05:25:56;94939.63;;;9.98;91.05
22647;BME280;11490;42.726;23.268;2023-03-26T05:28:21;94933.16;;;9.94;91.62
22647;BME280;11490;42.726;23.268;2023-03-26T05:30:50;94931.38;;;10.16;90.95
22647;BME280;11490;42.726;23.268;2023-03-26T05:33:17;94932.25;;;10.50;90.75
22647;BME280;11490;42.726;23.268;2023-03-26T05:35:43;94929.25;;;10.47;89.19
22647;BME280;11490;42.726;23.268;2023-03-26T05:38:11;94925.13;;;10.39;88.52
22647;BME280;11490;42.726;23.268;2023-03-26T05:40:37;94929.00;;;10.31;89.73
22647;BME280;11490;42.726;23.268;2023-03-26T05:43:03;94936.44;;;10.46;89.16
22647;BME280;11490;42.726;23.268;2023-03-26T05:45:28;94935.78;;;10.22;89.29
22647;BME280;11490;42.726;23.268;2023-03-26T05:47:55;94919.31;;;10.25;89.46
22647;BME280;11490;42.726;23.268;2023-03-26T05:50:21;94931.88;;;10.80;88.73
22647;BME280;11490;42.726;23.268;2023-03-26T05:52:46;94949.63;;;11.51;84.79
22647;BME280;11490;42.726;23.268;2023-03-26T05:55:11;94942.06;;;11.70;83.01
22647;BME280;11490;42.726;23.268;2023-03-26T05:57:37;94946.94;;;12.27;81.91
22647;BME280;11490;42.726;23.268;2023-03-26T06:00:04;94942.31;;;12.54;79.78
22647;BME280;11490;42.726;23.268;2023-03-26T06:02:32;94938.19;;;13.73;76.87
22647;BME280;11490;42.726;23.268;2023-03-26T06:04:59;94937.22;;;14.19;73.15
22647;BME280;11490;42.726;23.268;2023-03-26T06:07:25;94947.69;;;14.87;68.58
22647;BME280;11490;42.726;23.268;2023-03-26T06:09:51;94945.78;;;15.23;66.44
22647;BME280;11490;42.726;23.268;2023-03-26T06:12:17;94950.69;;;14.55;68.30
22647;BME280;11490;42.726;23.268;2023-03-26T06:14:42;94943.06;;;13.96;70.06
22647;BME280;11490;42.726;23.268;2023-03-26T06:17:08;94944.72;;;15.09;68.59
22647;BME280;11490;42.726;23.268;2023-03-26T06:19:34;94949.22;;;15.38;67.96
22647;BME280;11490;42.726;23.268;2023-03-26T06:21:59;94951.78;;;15.74;65.97
22647;BME280;11490;42.726;23.268;2023-03-26T06:24:28;94938.94;;;16.15;64.04
22647;BME280;11490;42.726;23.268;2023-03-26T06:26:54;94938.06;;;15.75;63.73
22647;BME280;11490;42.726;23.268;2023-03-26T06:29:19;94952.03;;;16.32;61.49
22647;BME280;11490;42.726;23.268;2023-03-26T06:31:45;94915.97;;;16.67;59.43
22647;BME280;11490;42.726;23.268;2023-03-26T06:34:10;94959.63;;;17.21;58.41
22647;BME280;11490;42.726;23.268;2023-03-26T06:36:35;94949.88;;;16.68;60.59
22647;BME280;11490;42.726;23.268;2023-03-26T06:39:01;94956.09;;;17.26;61.17
22647;BME280;11490;42.726;23.268;2023-03-26T06:41:26;94952.16;;;17.13;58.82
22647;BME280;11490;42.726;23.268;2023-03-26T06:43:52;94954.06;;;16.84;59.99
22647;BME280;11490;42.726;23.268;2023-03-26T06:46:18;94937.50;;;17.24;60.01
22647;BME280;11490;42.726;23.268;2023-03-26T06:48:45;94961.97;;;17.57;59.46
22647;BME280;11490;42.726;23.268;2023-03-26T06:51:10;94945.78;;;17.57;60.08
22647;BME280;11490;42.726;23.268;2023-03-26T06:53:36;94982.72;;;17.56;56.73
22647;BME280;11490;42.726;23.268;2023-03-26T06:56:02;94970.50;;;17.11;59.05
22647;BME280;11490;42.726;23.268;2023-03-26T06:58:28;94975.53;;;16.11;59.89
22647;BME280;11490;42.726;23.268;2023-03-26T07:00:55;94976.00;;;16.67;59.11
22647;BME280;11490;42.726;23.268;2023-03-26T07:03:20;94970.47;;;16.87;57.58
22647;BME280;11490;42.726;23.268;2023-03-26T07:05:46;94975.91;;;17.11;59.03
22647;BME280;11490;42.726;23.268;2023-03-26T07:08:12;94967.25;;;16.85;60.67
22647;BME280;11490;42.726;23.268;2023-03-26T07:10:37;94965.91;;;16.49;58.52
22647;BME280;11490;42.726;23.268;2023-03-26T07:13:02;94957.13;;;16.28;60.29
22647;BME280;11490;42.726;23.268;2023-03-26T07:15:28;94960.06;;;15.93;60.64
22647;BME280;11490;42.726;23.268;2023-03-26T07:17:53;94968.16;;;15.83;62.63
22647;BME280;11490;42.726;23.268;2023-03-26T07:20:19;94951.09;;;16.07;62.85
22647;BME280;11490;42.726;23.268;2023-03-26T07:22:45;94953.66;;;15.78;59.59
22647;BME280;11490;42.726;23.268;2023-03-26T07:25:12;94953.59;;;15.94;61.43
22647;BME280;11490;42.726;23.268;2023-03-26T07:33:14;94940.47;;;16.26;61.72
22647;BME280;11490;42.726;23.268;2023-03-26T07:39:00;94946.38;;;16.28;60.03
22647;BME280;11490;42.726;23.268;2023-03-26T07:41:49;94952.66;;;16.52;58.39
22647;BME280;11490;42.726;23.268;2023-03-26T07:44:25;94955.84;;;16.60;58.82
22647;BME280;11490;42.726;23.268;2023-03-26T07:46:56;94949.53;;;16.79;58.89
22647;BME280;11490;42.726;23.268;2023-03-26T07:49:25;94946.91;;;17.03;57.04
22647;BME280;11490;42.726;23.268;2023-03-26T07:51:52;94923.91;;;16.82;57.84
22647;BME280;11490;42.726;23.268;2023-03-26T07:54:18;94946.69;;;17.23;56.10
22647;BME280;11490;42.726;23.268;2023-03-26T07:57:09;94945.88;;;17.23;56.20
22647;BME280;11490;42.726;23.268;2023-03-26T08:02:58;94944.53;;;17.20;56.06
22647;BME280;11490;42.726;23.268;2023-03-26T08:16:01;94930.22;;;15.84;58.99
22647;BME280;11490;42.726;23.268;2023-03-26T08:19:24;94944.03;;;15.67;58.83
22647;BME280;11490;42.726;23.268;2023-03-26T08:27:37;94947.78;;;15.71;55.47
22647;BME280;11490;42.726;23.268;2023-03-26T08:30:16;94944.22;;;16.30;55.70
22647;BME280;11490;42.726;23.268;2023-03-26T08:35:27;94956.06;;;17.02;53.37
22647;BME280;11490;42.726;23.268;2023-03-26T08:37:52;94951.59;;;17.16;52.15
22647;BME280;11490;42.726;23.268;2023-03-26T08:46:02;94939.97;;;18.30;50.20
22647;BME280;11490;42.726;23.268;2023-03-26T08:51:23;94945.28;;;17.97;49.45
22647;BME280;11490;42.726;23.268;2023-03-26T09:03:07;94947.94;;;18.02;47.09
22647;BME280;11490;42.726;23.268;2023-03-26T09:10:57;94942.69;;;19.59;43.73
22647;BME280;11490;42.726;23.268;2023-03-26T09:25:20;94920.22;;;19.45;45.28
22647;BME280;11490;42.726;23.268;2023-03-26T09:38:44;94927.75;;;19.76;43.30
22647;BME280;11490;42.726;23.268;2023-03-26T10:03:54;94885.59;;;18.88;39.69
22647;BME280;11490;42.726;23.268;2023-03-26T10:09:13;94876.19;;;18.85;40.90
22647;BME280;11490;42.726;23.268;2023-03-26T10:20:01;94870.03;;;19.53;40.10
22647;BME280;11490;42.726;23.268;2023-03-26T10:36:33;94851.50;;;19.46;39.22
22647;BME280;11490;42.726;23.268;2023-03-26T10:47:09;94840.44;;;18.74;36.72
22647;BME280;11490;42.726;23.268;2023-03-26T10:52:45;94815.25;;;19.20;38.86
22647;BME280;11490;42.726;23.268;2023-03-26T10:55:17;94819.25;;;19.64;36.92
22647;BME280;11490;42.726;23.268;2023-03-26T10:57:52;94818.72;;;19.62;35.23
22647;BME280;11490;42.726;23.268;2023-03-26T11:00:20;94812.63;;;19.42;36.58
22647;BME280;11490;42.726;23.268;2023-03-26T11:03:25;94815.72;;;19.36;37.40
22647;BME280;11490;42.726;23.268;2023-03-26T11:14:20;94803.72;;;19.55;38.62
22647;BME280;11490;42.726;23.268;2023-03-26T11:22:10;94781.41;;;19.50;34.40
22647;BME280;11490;42.726;23.268;2023-03-26T11:25:16;94790.63;;;19.08;35.19
22647;BME280;11490;42.726;23.268;2023-03-26T11:30:28;94781.59;;;18.85;33.94
22647;BME280;11490;42.726;23.268;2023-03-26T11:33:02;94790.31;;;18.96;37.37
22647;BME280;11490;42.726;23.268;2023-03-26T11:35:33;94772.06;;;18.60;35.86
22647;BME280;11490;42.726;23.268;2023-03-26T11:38:06;94778.13;;;18.52;34.48
22647;BME280;11490;42.726;23.268;2023-03-26T11:40:49;94759.06;;;18.62;37.58
22647;BME280;11490;42.726;23.268;2023-03-26T11:43:21;94761.94;;;18.52;34.50
22647;BME280;11490;42.726;23.268;2023-03-26T11:45:49;94758.59;;;18.88;36.26
22647;BME280;11490;42.726;23.268;2023-03-26T11:48:30;94750.91;;;18.81;33.47
22647;BME280;11490;42.726;23.268;2023-03-26T11:51:03;94742.19;;;18.70;32.67
22647;BME280;11490;42.726;23.268;2023-03-26T11:53:32;94738.78;;;18.78;35.61
22647;BME280;11490;42.726;23.268;2023-03-26T11:58:32;94736.88;;;18.93;34.05
22647;BME280;11490;42.726;23.268;2023-03-26T12:04:11;94716.34;;;18.92;34.63
22647;BME280;11490;42.726;23.268;2023-03-26T12:06:51;94686.31;;;18.93;34.52
22647;BME280;11490;42.726;23.268;2023-03-26T12:09:18;94715.34;;;19.01;35.38
22647;BME280;11490;42.726;23.268;2023-03-26T12:11:44;94715.94;;;18.84;34.28
22647;BME280;11490;42.726;23.268;2023-03-26T12:14:24;94710.13;;;19.05;33.93
22647;BME280;11490;42.726;23.268;2023-03-26T12:17:01;94708.44;;;18.81;34.45
22647;BME280;11490;42.726;23.268;2023-03-26T12:19:34;94685.63;;;18.74;34.52
22647;BME280;11490;42.726;23.268;2023-03-26T12:22:00;94684.13;;;18.81;34.73
22647;BME280;11490;42.726;23.268;2023-03-26T12:24:33;94684.94;;;18.68;33.13
22647;BME280;11490;42.726;23.268;2023-03-26T12:29:57;94664.34;;;18.72;33.17
22647;BME280;11490;42.726;23.268;2023-03-26T12:32:31;94675.63;;;18.88;32.85
22647;BME280;11490;42.726;23.268;2023-03-26T12:35:04;94670.53;;;18.73;32.00
22647;BME280;11490;42.726;23.268;2023-03-26T12:37:40;94681.13;;;18.56;30.38
22647;BME280;11490;42.726;23.268;2023-03-26T12:43:30;94655.91;;;18.74;30.59
22647;BME280;11490;42.726;23.268;2023-03-26T12:46:00;94661.53;;;18.77;32.13
22647;BME280;11490;42.726;23.268;2023-03-26T12:48:26;94658.31;;;18.75;30.91
22647;BME280;11490;42.726;23.268;2023-03-26T12:51:13;94656.72;;;18.61;29.02
22647;BME280;11490;42.726;23.268;2023-03-26T13:02:29;94657.50;;;18.89;27.45
22647;BME280;11490;42.726;23.268;2023-03-26T13:07:58;94659.47;;;19.10;27.43
22647;BME280;11490;42.726;23.268;2023-03-26T13:10:49;94648.28;;;19.03;27.75
22647;BME280;11490;42.726;23.268;2023-03-26T13:19:16;94627.88;;;18.83;28.55
22647;BME280;11490;42.726;23.268;2023-03-26T13:21:55;94620.38;;;18.94;29.55
22647;BME280;11490;42.726;23.268;2023-03-26T13:24:36;94631.41;;;18.70;29.54
22647;BME280;11490;42.726;23.268;2023-03-26T13:32:49;94631.50;;;18.38;28.19
22647;BME280;11490;42.726;23.268;2023-03-26T13:35:45;94617.59;;;18.44;30.97
22647;BME280;11490;42.726;23.268;2023-03-26T13:43:36;94627.50;;;18.35;29.61
22647;BME280;11490;42.726;23.268;2023-03-26T13:48:51;94618.31;;;18.50;30.83
22647;BME280;11490;42.726;23.268;2023-03-26T13:51:32;94604.50;;;18.38;30.91
22647;BME280;11490;42.726;23.268;2023-03-26T13:54:08;94612.59;;;18.38;29.13
22647;BME280;11490;42.726;23.268;2023-03-26T13:56:40;94604.69;;;18.28;28.90
22647;BME280;11490;42.726;23.268;2023-03-26T13:59:30;94604.41;;;18.29;28.51
22647;BME280;11490;42.726;23.268;2023-03-26T14:04:50;94609.00;;;18.29;29.37
22647;BME280;11490;42.726;23.268;2023-03-26T14:07:24;94608.91;;;18.06;29.65
22647;BME280;11490;42.726;23.268;2023-03-26T14:09:58;94594.88;;;17.77;29.14
22647;BME280;11490;42.726;23.268;2023-03-26T14:15:41;94593.50;;;17.93;29.54
22647;BME280;11490;42.726;23.268;2023-03-26T14:18:25;94587.59;;;17.91;30.23
22647;BME280;11490;42.726;23.268;2023-03-26T14:23:51;94583.50;;;17.80;30.62
22647;BME280;11490;42.726;23.268;2023-03-26T14:26:36;94585.69;;;17.78;30.87
22647;BME280;11490;42.726;23.268;2023-03-26T14:35:23;94589.88;;;17.71;30.41
22647;BME280;11490;42.726;23.268;2023-03-26T14:41:08;94573.06;;;17.74;30.94
22647;BME280;11490;42.726;23.268;2023-03-26T14:43:46;94566.47;;;17.66;30.51
22647;BME280;11490;42.726;23.268;2023-03-26T14:49:28;94563.78;;;17.66;29.74
22647;BME280;11490;42.726;23.268;2023-03-26T14:54:40;94575.69;;;17.65;28.64
22647;BME280;11490;42.726;23.268;2023-03-26T14:57:23;94570.88;;;17.62;28.25
22647;BME280;11490;42.726;23.268;2023-03-26T15:11:13;94582.88;;;17.51;30.99
22647;BME280;11490;42.726;23.268;2023-03-26T15:31:48;94572.13;;;17.18;32.69
22647;BME280;11490;42.726;23.268;2023-03-26T15:50:57;94565.88;;;17.04;34.78
22647;BME280;11490;42.726;23.268;2023-03-26T15:53:38;94575.50;;;17.10;34.03
22647;BME280;11490;42.726;23.268;2023-03-26T15:59:21;94559.19;;;17.02;34.93
22647;BME280;11490;42.726;23.268;2023-03-26T16:07:47;94569.97;;;16.83;35.06
22647;BME280;11490;42.726;23.268;2023-03-26T16:10:28;94566.75;;;16.81;34.89
22647;BME280;11490;42.726;23.268;2023-03-26T16:15:52;94562.47;;;16.61;34.93
22647;BME280;11490;42.726;23.268;2023-03-26T16:18:36;94560.69;;;16.51;36.02
22647;BME280;11490;42.726;23.268;2023-03-26T16:24:18;94570.94;;;16.49;36.20
22647;BME280;11490;42.726;23.268;2023-03-26T16:29:21;94578.00;;;16.45;36.60
22647;BME280;11490;42.726;23.268;2023-03-26T16:34:41;94578.53;;;16.47;36.91
22647;BME280;11490;42.726;23.268;2023-03-26T16:37:39;94579.03;;;16.07;37.23
22647;BME280;11490;42.726;23.268;2023-03-26T16:45:42;94578.69;;;15.90;38.07
22647;BME280;11490;42.726;23.268;2023-03-26T16:51:47;94571.25;;;15.53;40.29
22647;BME280;11490;42.726;23.268;2023-03-26T16:54:26;94584.09;;;15.32;39.70
22647;BME280;11490;42.726;23.268;2023-03-26T16:57:23;94565.22;;;15.37;42.91
22647;BME280;11490;42.726;23.268;2023-03-26T17:05:24;94580.59;;;14.97;43.22
22647;BME280;11490;42.726;23.268;2023-03-26T17:10:45;94586.75;;;14.59;42.93
22647;BME280;11490;42.726;23.268;2023-03-26T17:19:58;94592.41;;;14.96;42.59
22647;BME280;11490;42.726;23.268;2023-03-26T17:21:59;94586.69;;;14.69;44.26
22647;BME280;11490;42.726;23.268;2023-03-26T17:32:55;94590.81;;;14.95;45.25
22647;BME280;11490;42.726;23.268;2023-03-26T17:35:42;94596.75;;;14.92;45.45
22647;BME280;11490;42.726;23.268;2023-03-26T17:40:55;94581.44;;;14.49;44.61
22647;BME280;11490;42.726;23.268;2023-03-26T17:46:32;94585.59;;;14.75;47.45
22647;BME280;11490;42.726;23.268;2023-03-26T17:51:57;94574.50;;;14.38;47.98
22647;BME280;11490;42.726;23.268;2023-03-26T17:54:30;94582.69;;;14.07;48.70
22647;BME280;11490;42.726;23.268;2023-03-26T17:57:05;94581.38;;;13.95;49.49
22647;BME280;11490;42.726;23.268;2023-03-26T17:59:34;94569.28;;;14.02;48.95
22647;BME280;11490;42.726;23.268;2023-03-26T18:02:03;94554.75;;;14.18;47.49
22647;BME280;11490;42.726;23.268;2023-03-26T18:04:36;94587.16;;;14.32;47.33
22647;BME280;11490;42.726;23.268;2023-03-26T18:08:04;94583.13;;;14.40;46.77
22647;BME280;11490;42.726;23.268;2023-03-26T18:10:36;94558.50;;;14.17;50.98
22647;BME280;11490;42.726;23.268;2023-03-26T18:18:29;94565.00;;;14.06;50.62
22647;BME280;11490;42.726;23.268;2023-03-26T18:20:57;94576.81;;;14.00;50.63
22647;BME280;11490;42.726;23.268;2023-03-26T18:23:44;94574.66;;;14.07;51.05
22647;BME280;11490;42.726;23.268;2023-03-26T18:28:49;94554.69;;;13.64;52.45
22647;BME280;11490;42.726;23.268;2023-03-26T18:33:45;94558.75;;;13.41;53.09
22647;BME280;11490;42.726;23.268;2023-03-26T18:36:13;94560.09;;;13.34;53.20
22647;BME280;11490;42.726;23.268;2023-03-26T18:38:39;94562.00;;;13.18;52.74
22647;BME280;11490;42.726;23.268;2023-03-26T18:41:06;94541.63;;;13.12;53.81
22647;BME280;11490;42.726;23.268;2023-03-26T18:43:33;94550.72;;;13.01;53.05
22647;BME280;11490;42.726;23.268;2023-03-26T18:45:59;94544.59;;;12.90;53.50
22647;BME280;11490;42.726;23.268;2023-03-26T18:48:26;94538.97;;;12.92;52.92
22647;BME280;11490;42.726;23.268;2023-03-26T18:50:55;94542.72;;;12.96;53.01
22647;BME280;11490;42.726;23.268;2023-03-26T18:53:26;94526.13;;;12.79;54.38
22647;BME280;11490;42.726;23.268;2023-03-26T18:55:55;94538.16;;;13.11;53.53
22647;BME280;11490;42.726;23.268;2023-03-26T18:58:28;94520.78;;;12.99;55.40
22647;BME280;11490;42.726;23.268;2023-03-26T19:00:59;94537.91;;;13.28;53.54
22647;BME280;11490;42.726;23.268;2023-03-26T19:03:27;94526.63;;;13.46;52.32
22647;BME280;11490;42.726;23.268;2023-03-26T19:05:56;94516.94;;;13.51;53.27
22647;BME280;11490;42.726;23.268;2023-03-26T19:08:23;94519.34;;;13.57;52.13